Time;durP1;ratioP1;P1;durP2;ratioP2;P2;SDS_P1;SDS_P2;PMS_P1;PMS_P2;Temp;Humidity;BMP_temperature;BMP_pressure;BME280_temperature;BME280_humidity;BME280_pressure;Samples;Min_cycle;Max_cycle;Signal;HPM_P1;HPM_P2
2023/01/31 00:01:10;;;;;;;14.50;6.77;;;0.70;99.90;;;;;;4440750;28;658356;-74
2023/01/31 00:04:00;;;;;;;15.73;8.33;;;0.70;99.90;;;;;;4422370;28;658958;-75
2023/01/31 00:06:50;;;;;;;15.20;7.53;;;0.70;99.90;;;;;;4425781;28;659342;-74
2023/01/31 00:09:37;;;;;;;14.00;6.30;;;0.80;99.90;;;;;;4408712;28;658585;-74
2023/01/31 00:12:24;;;;;;;14.87;7.40;;;0.80;99.90;;;;;;4434885;28;658123;-74
2023/01/31 00:15:15;;;;;;;16.00;7.03;;;0.80;99.90;;;;;;4412185;28;657667;-75
2023/01/31 00:18:02;;;;;;;16.43;6.07;;;0.80;99.90;;;;;;4415695;28;659215;-74
2023/01/31 00:20:51;;;;;;;16.00;5.77;;;0.90;99.90;;;;;;4443322;28;657711;-73
2023/01/31 00:23:38;;;;;;;13.13;6.70;;;0.90;99.90;;;;;;4426336;28;658203;-75
2023/01/31 00:26:28;;;;;;;14.97;6.50;;;0.90;99.90;;;;;;4417210;28;657182;-75
2023/01/31 00:29:15;;;;;;;10.20;5.00;;;0.80;99.90;;;;;;4424105;28;658063;-75
2023/01/31 00:32:03;;;;;;;8.80;4.67;;;0.80;99.90;;;;;;4437222;28;658530;-75
2023/01/31 00:34:50;;;;;;;12.00;6.27;;;0.80;99.90;;;;;;4419049;28;656294;-75
2023/01/31 00:37:39;;;;;;;12.90;5.90;;;0.80;99.90;;;;;;4443772;28;658042;-73
2023/01/31 00:40:26;;;;;;;10.07;6.27;;;0.80;99.90;;;;;;4415236;28;657562;-74
2023/01/31 00:43:14;;;;;;;12.57;6.07;;;0.80;99.90;;;;;;4433713;28;657200;-74
2023/01/31 00:46:01;;;;;;;12.07;4.73;;;0.80;99.90;;;;;;4408110;28;657800;-75
2023/01/31 00:48:48;;;;;;;10.50;6.18;;;0.70;99.90;;;;;;4438807;28;658456;-75
2023/01/31 00:51:35;;;;;;;15.37;7.30;;;0.70;99.90;;;;;;4424327;28;659479;-75
2023/01/31 00:54:24;;;;;;;18.57;7.00;;;0.70;99.90;;;;;;4442185;28;658702;-75
2023/01/31 00:57:11;;;;;;;17.73;7.10;;;0.70;99.90;;;;;;4411539;28;657537;-75
2023/01/31 00:59:59;;;;;;;15.70;6.97;;;0.80;99.90;;;;;;4436925;28;658647;-74
2023/01/31 01:02:46;;;;;;;17.37;6.83;;;0.80;99.90;;;;;;4412095;28;658172;-75
2023/01/31 01:05:33;;;;;;;12.83;5.57;;;0.80;99.90;;;;;;4442608;28;657880;-75
2023/01/31 01:08:20;;;;;;;13.60;6.07;;;0.80;99.90;;;;;;4420798;28;657335;-75
2023/01/31 01:11:10;;;;;;;13.30;5.37;;;0.80;99.90;;;;;;4447889;28;657988;-75
2023/01/31 01:13:58;;;;;;;14.93;5.67;;;0.80;99.90;;;;;;4422799;28;658096;-75
2023/01/31 01:16:45;;;;;;;16.97;4.57;;;0.80;99.90;;;;;;4431377;28;657819;-74
2023/01/31 01:19:32;;;;;;;13.43;4.70;;;0.80;99.90;;;;;;4442131;28;658015;-75
2023/01/31 01:22:20;;;;;;;15.07;5.33;;;0.80;99.90;;;;;;4431960;28;659133;-75
2023/01/31 01:25:09;;;;;;;14.20;5.93;;;0.80;99.90;;;;;;4438956;28;658772;-75
2023/01/31 01:27:59;;;;;;;11.02;6.00;;;0.80;99.90;;;;;;4419243;28;658650;-75
2023/01/31 01:30:46;;;;;;;17.47;5.83;;;0.80;99.90;;;;;;4421586;28;657350;-75
2023/01/31 01:33:33;;;;;;;14.83;5.40;;;0.80;99.90;;;;;;4442604;28;659286;-74
2023/01/31 01:36:24;;;;;;;19.33;6.57;;;0.80;99.90;;;;;;4413208;28;657479;-75
2023/01/31 01:39:12;;;;;;;26.53;7.53;;;0.80;99.90;;;;;;4419339;28;657754;-75
2023/01/31 01:41:59;;;;;;;12.80;5.03;;;0.80;99.90;;;;;;4442082;28;658310;-75
2023/01/31 01:44:50;;;;;;;20.20;5.90;;;0.90;99.90;;;;;;4420161;28;658577;-74
2023/01/31 01:47:40;;;;;;;16.43;6.57;;;0.80;99.90;;;;;;4421303;28;658414;-74
2023/01/31 01:50:28;;;;;;;16.37;6.17;;;0.90;99.90;;;;;;4421834;28;659189;-74
2023/01/31 01:53:16;;;;;;;25.07;7.60;;;0.90;99.90;;;;;;4412769;28;657511;-74
2023/01/31 01:56:07;;;;;;;29.70;7.20;;;0.90;99.90;;;;;;4436988;28;658425;-74
2023/01/31 01:58:57;;;;;;;25.97;6.37;;;0.90;99.90;;;;;;4424301;28;658616;-74
2023/01/31 02:01:46;;;;;;;22.17;5.93;;;0.90;99.90;;;;;;4415040;28;658251;-74
2023/01/31 02:04:34;;;;;;;33.67;6.23;;;0.90;99.90;;;;;;4414837;28;658367;-74
2023/01/31 02:07:21;;;;;;;17.83;6.23;;;0.90;99.90;;;;;;4417179;28;658411;-74
2023/01/31 02:10:11;;;;;;;17.88;6.57;;;0.90;99.90;;;;;;4438453;28;658535;-74
2023/01/31 02:12:59;;;;;;;24.67;6.57;;;1.00;99.90;;;;;;4415608;28;657870;-74
2023/01/31 02:15:46;;;;;;;30.20;7.30;;;1.00;99.90;;;;;;4417412;28;657764;-74
2023/01/31 02:18:35;;;;;;;22.60;5.70;;;1.00;99.90;;;;;;4443933;28;658005;-74
2023/01/31 02:21:46;;;;;;;23.63;5.10;;;1.00;99.90;;;;;;4419970;28;658728;-74
2023/01/31 02:25:04;;;;;;;17.43;5.10;;;1.00;99.90;;;;;;4421171;28;658159;-72
2023/01/31 02:28:27;;;;;;;17.93;5.13;;;1.10;99.90;;;;;;4422870;28;657736;-74
2023/01/31 02:31:54;;;;;;;21.47;4.93;;;1.00;99.90;;;;;;4432189;28;657564;-73
2023/01/31 02:34:45;;;;;;;33.13;5.13;;;1.00;99.90;;;;;;4410904;28;658414;-74
2023/01/31 02:37:36;;;;;;;16.97;4.67;;;1.00;99.90;;;;;;4420359;28;658694;-74
2023/01/31 02:40:26;;;;;;;24.07;4.73;;;1.00;99.90;;;;;;4413840;28;658491;-74
2023/01/31 02:43:16;;;;;;;17.60;5.03;;;1.00;99.90;;;;;;4416953;28;658477;-74
2023/01/31 02:46:06;;;;;;;20.10;4.17;;;1.00;99.90;;;;;;4404362;28;657951;-74
2023/01/31 02:48:54;;;;;;;19.93;3.97;;;1.00;99.90;;;;;;4420113;28;658003;-75
2023/01/31 02:52:14;;;;;;;20.30;4.03;;;0.90;99.90;;;;;;4422164;28;658186;-75
2023/01/31 02:58:01;;;;;;;16.53;3.10;;;1.00;99.90;;;;;;4418485;28;657641;-73
2023/01/31 03:00:51;;;;;;;13.60;2.33;;;0.90;99.90;;;;;;4445725;28;658181;-74
2023/01/31 03:03:41;;;;;;;16.23;3.23;;;0.90;99.90;;;;;;4418344;28;657813;-75
2023/01/31 03:06:59;;;;;;;15.95;2.60;;;0.90;99.90;;;;;;4407525;28;657669;-75
2023/01/31 03:09:51;;;;;;;11.47;2.07;;;0.80;99.90;;;;;;4394465;28;658569;-75
2023/01/31 03:13:00;;;;;;;14.60;2.87;;;0.90;99.90;;;;;;4411764;28;658064;-76
2023/01/31 03:19:01;;;;;;;18.50;3.00;;;0.90;99.90;;;;;;4387472;28;658441;-74
2023/01/31 03:21:51;;;;;;;17.03;2.90;;;0.90;99.90;;;;;;4422860;28;657827;-75
2023/01/31 03:24:40;;;;;;;15.63;3.17;;;0.90;99.90;;;;;;4421971;28;657897;-75
2023/01/31 03:27:27;;;;;;;16.27;3.27;;;0.90;99.90;;;;;;4413263;28;657974;-75
2023/01/31 03:30:17;;;;;;;21.43;3.13;;;0.90;99.90;;;;;;4435051;28;657823;-75
2023/01/31 03:33:06;;;;;;;19.43;3.37;;;0.90;99.90;;;;;;4445052;28;657171;-75
2023/01/31 03:35:56;;;;;;;18.77;3.73;;;0.90;99.90;;;;;;4415986;28;658029;-75
2023/01/31 03:38:49;;;;;;;20.43;3.93;;;1.00;99.90;;;;;;4420033;28;657787;-75
2023/01/31 03:41:46;;;;;;;10.60;3.40;;;0.90;99.90;;;;;;4415138;28;657821;-75
2023/01/31 03:44:42;;;;;;;15.13;3.17;;;1.00;99.90;;;;;;4411761;28;657490;-74
2023/01/31 03:47:34;;;;;;;25.65;4.32;;;1.00;99.90;;;;;;4420606;28;657656;-75
2023/01/31 03:50:27;;;;;;;10.93;2.53;;;1.00;99.90;;;;;;4412047;28;657435;-75
2023/01/31 03:53:18;;;;;;;16.60;2.97;;;0.90;99.90;;;;;;4415325;28;658646;-75
2023/01/31 03:56:12;;;;;;;13.77;2.67;;;0.90;99.90;;;;;;4413223;28;657566;-75
2023/01/31 03:59:07;;;;;;;11.47;2.67;;;0.90;99.90;;;;;;4417118;28;658752;-75
2023/01/31 04:01:59;;;;;;;20.20;2.50;;;0.80;99.90;;;;;;4430536;28;657294;-75
2023/01/31 04:04:48;;;;;;;8.23;2.07;;;0.80;99.90;;;;;;4421744;28;658063;-75
2023/01/31 04:07:35;;;;;;;12.17;1.90;;;0.70;99.90;;;;;;4418060;28;657427;-75
2023/01/31 04:10:25;;;;;;;14.30;2.50;;;0.70;99.90;;;;;;4448105;28;656859;-75
2023/01/31 04:13:12;;;;;;;11.67;1.77;;;0.70;99.90;;;;;;4423773;28;657844;-73
2023/01/31 04:16:00;;;;;;;17.27;2.23;;;0.70;99.90;;;;;;4447427;28;658097;-75
2023/01/31 04:18:48;;;;;;;10.90;1.77;;;0.70;99.90;;;;;;4416127;28;658776;-76
2023/01/31 04:21:35;;;;;;;6.30;2.37;;;0.60;99.90;;;;;;4439326;28;658053;-75
2023/01/31 04:24:23;;;;;;;11.40;3.10;;;0.60;99.90;;;;;;4439638;28;657161;-74
2023/01/31 04:27:10;;;;;;;12.10;3.83;;;0.60;99.90;;;;;;4436674;28;657654;-75
2023/01/31 04:29:57;;;;;;;21.83;4.00;;;0.60;99.90;;;;;;4443675;28;658846;-75
2023/01/31 04:32:46;;;;;;;16.53;4.23;;;0.50;99.90;;;;;;4442699;28;657540;-73
2023/01/31 04:35:34;;;;;;;15.90;5.27;;;0.50;99.90;;;;;;4412387;28;658578;-75
2023/01/31 04:38:21;;;;;;;16.23;4.23;;;0.50;99.90;;;;;;4424011;28;658327;-76
2023/01/31 04:41:08;;;;;;;16.27;3.43;;;0.50;99.90;;;;;;4441773;28;658260;-74
2023/01/31 04:43:56;;;;;;;21.47;4.00;;;0.60;99.90;;;;;;4426677;28;657691;-75
2023/01/31 04:46:45;;;;;;;16.13;3.73;;;0.60;99.90;;;;;;4439834;28;659300;-75
2023/01/31 04:49:34;;;;;;;17.07;3.73;;;0.60;99.90;;;;;;4418976;28;658009;-74
2023/01/31 04:52:23;;;;;;;17.30;4.13;;;0.60;99.90;;;;;;4409066;28;658225;-76
2023/01/31 04:55:11;;;;;;;13.00;2.80;;;0.50;99.90;;;;;;4425536;28;657856;-75
2023/01/31 04:57:58;;;;;;;7.13;2.20;;;0.50;99.90;;;;;;4442154;28;657949;-73
2023/01/31 05:00:45;;;;;;;7.33;1.87;;;0.50;99.90;;;;;;4425813;28;655912;-74
2023/01/31 05:03:32;;;;;;;10.90;2.20;;;0.50;99.90;;;;;;4440833;28;657536;-75
2023/01/31 05:06:21;;;;;;;12.83;2.90;;;0.40;99.90;;;;;;4448574;28;657781;-74
2023/01/31 05:09:10;;;;;;;15.02;2.05;;;0.40;99.90;;;;;;4406859;28;658770;-75
2023/01/31 05:11:57;;;;;;;8.43;1.80;;;0.40;99.90;;;;;;4410046;28;658614;-74
2023/01/31 05:14:44;;;;;;;7.37;1.80;;;0.40;99.90;;;;;;4445591;28;657062;-75
2023/01/31 05:17:31;;;;;;;7.93;1.63;;;0.30;99.90;;;;;;4421186;28;656962;-74
2023/01/31 05:20:19;;;;;;;5.77;1.53;;;0.30;99.90;;;;;;4435036;28;656843;-74
2023/01/31 05:23:07;;;;;;;9.53;1.90;;;0.30;99.90;;;;;;4418438;28;657038;-74
2023/01/31 05:25:55;;;;;;;9.90;1.87;;;0.20;99.90;;;;;;4434725;28;656912;-74
2023/01/31 05:28:42;;;;;;;7.03;1.67;;;0.30;99.90;;;;;;4441306;28;657390;-74
2023/01/31 05:31:30;;;;;;;4.80;1.27;;;0.30;99.90;;;;;;4441803;28;656342;-73
2023/01/31 05:34:17;;;;;;;17.47;1.90;;;0.30;99.90;;;;;;4446356;28;656978;-74
2023/01/31 05:37:05;;;;;;;8.60;1.93;;;0.20;99.90;;;;;;4436589;28;658384;-74
2023/01/31 05:39:54;;;;;;;8.77;1.53;;;0.30;99.90;;;;;;4446391;28;657575;-74
2023/01/31 05:42:41;;;;;;;7.97;1.70;;;0.30;99.90;;;;;;4419030;28;656619;-74
2023/01/31 05:45:28;;;;;;;6.63;1.52;;;0.30;99.90;;;;;;4432979;28;656747;-73
2023/01/31 05:48:16;;;;;;;11.93;1.93;;;0.20;99.90;;;;;;4423292;28;656473;-74
2023/01/31 05:51:03;;;;;;;12.23;2.57;;;0.20;99.90;;;;;;4443789;28;658680;-74
2023/01/31 05:53:50;;;;;;;12.45;2.53;;;0.20;99.90;;;;;;4427993;28;657902;-74
2023/01/31 05:56:39;;;;;;;9.30;3.40;;;0.20;99.90;;;;;;4444700;28;658668;-74
2023/01/31 05:59:29;;;;;;;13.55;3.75;;;0.10;99.90;;;;;;4426497;28;656915;-73
2023/01/31 06:02:16;;;;;;;17.90;3.67;;;0.20;99.90;;;;;;4412100;28;658337;-74
2023/01/31 06:05:04;;;;;;;19.03;4.03;;;0.20;99.90;;;;;;4434764;28;658855;-74
2023/01/31 06:07:51;;;;;;;16.23;4.97;;;0.20;99.90;;;;;;4417111;28;658003;-73
2023/01/31 06:10:38;;;;;;;11.80;4.03;;;0.20;99.90;;;;;;4443370;28;658273;-73
2023/01/31 06:13:27;;;;;;;20.75;5.07;;;0.30;99.90;;;;;;4418056;28;658467;-74
2023/01/31 06:16:14;;;;;;;12.57;4.27;;;0.30;99.90;;;;;;4441921;28;658260;-74
2023/01/31 06:19:01;;;;;;;23.70;6.63;;;0.30;99.90;;;;;;4408334;28;657905;-73
2023/01/31 06:21:49;;;;;;;26.53;7.20;;;0.30;99.90;;;;;;4436753;28;657662;-74
2023/01/31 06:24:36;;;;;;;22.90;7.27;;;0.30;99.90;;;;;;4411551;28;657494;-73
2023/01/31 06:27:23;;;;;;;28.73;7.17;;;0.30;99.90;;;;;;4433664;28;658594;-74
2023/01/31 06:30:13;;;;;;;14.90;5.13;;;0.30;99.90;;;;;;4418402;28;657710;-73
2023/01/31 06:33:00;;;;;;;18.80;6.15;;;0.30;99.90;;;;;;4419702;28;657746;-74
2023/01/31 06:35:47;;;;;;;20.47;5.67;;;0.40;99.90;;;;;;4439390;28;658402;-74
2023/01/31 06:38:35;;;;;;;15.27;4.90;;;0.40;99.90;;;;;;4435957;28;657423;-74
2023/01/31 06:41:22;;;;;;;20.00;5.87;;;0.50;99.90;;;;;;4445228;28;658307;-75
2023/01/31 06:44:10;;;;;;;18.43;5.43;;;0.50;99.90;;;;;;4436140;28;658128;-74
2023/01/31 06:46:59;;;;;;;23.47;5.00;;;0.50;99.90;;;;;;4440182;28;658160;-74
2023/01/31 06:49:46;;;;;;;20.20;4.83;;;0.50;99.90;;;;;;4418149;28;657385;-75
2023/01/31 06:52:33;;;;;;;20.67;5.60;;;0.50;99.90;;;;;;4436512;28;662718;-74
2023/01/31 06:55:21;;;;;;;13.10;3.97;;;0.50;99.90;;;;;;4417840;28;657625;-74
2023/01/31 06:58:08;;;;;;;15.37;4.43;;;0.60;99.90;;;;;;4437081;28;658200;-75
2023/01/31 07:00:55;;;;;;;16.33;4.63;;;0.50;99.90;;;;;;4416075;28;657582;-73
2023/01/31 07:03:44;;;;;;;18.97;4.53;;;0.50;99.90;;;;;;4438551;28;657934;-74
2023/01/31 07:06:31;;;;;;;17.60;3.90;;;0.50;99.90;;;;;;4417997;28;657576;-74
2023/01/31 07:09:18;;;;;;;17.35;4.70;;;0.50;99.90;;;;;;4437131;28;658389;-74
2023/01/31 07:12:06;;;;;;;20.97;4.67;;;0.60;99.90;;;;;;4405496;28;657200;-74
2023/01/31 07:14:53;;;;;;;21.77;4.57;;;0.60;99.90;;;;;;4436760;28;658905;-74
2023/01/31 07:17:40;;;;;;;15.75;3.75;;;0.60;99.90;;;;;;4417948;28;657390;-74
2023/01/31 07:20:29;;;;;;;13.03;3.77;;;0.50;99.90;;;;;;4436364;28;659156;-74
2023/01/31 07:23:16;;;;;;;14.50;3.73;;;0.50;99.90;;;;;;4415044;28;657771;-73
2023/01/31 07:26:04;;;;;;;17.42;4.35;;;0.60;99.90;;;;;;4436657;28;658022;-74
2023/01/31 07:28:52;;;;;;;16.17;4.97;;;0.60;99.90;;;;;;4414066;28;657918;-74
2023/01/31 07:31:39;;;;;;;16.97;4.73;;;0.60;99.90;;;;;;4440834;28;657941;-74
2023/01/31 07:34:26;;;;;;;16.80;4.00;;;0.70;99.90;;;;;;4423920;28;657314;-74
2023/01/31 07:37:15;;;;;;;11.73;3.50;;;0.60;99.90;;;;;;4429170;28;657366;-74
2023/01/31 07:40:03;;;;;;;18.87;4.70;;;0.70;99.90;;;;;;4415635;28;658080;-73
2023/01/31 07:42:51;;;;;;;18.27;5.10;;;0.70;99.90;;;;;;4413981;28;659522;-75
2023/01/31 07:45:41;;;;;;;12.53;3.53;;;0.80;99.90;;;;;;4435675;28;658431;-75
2023/01/31 07:48:28;;;;;;;19.37;4.27;;;0.80;99.90;;;;;;4415562;28;658550;-75
2023/01/31 07:51:15;;;;;;;18.27;4.23;;;0.90;99.90;;;;;;4414636;28;657783;-75
2023/01/31 07:54:04;;;;;;;22.83;5.00;;;1.00;99.90;;;;;;4433103;28;658750;-74
2023/01/31 07:56:51;;;;;;;29.33;4.83;;;1.00;99.90;;;;;;4410826;28;658337;-74
2023/01/31 07:59:39;;;;;;;24.60;4.27;;;0.90;99.90;;;;;;4427084;28;657954;-74
2023/01/31 08:05:31;;;;;;;19.73;4.43;;;0.80;99.90;;;;;;4385980;28;658166;-75
2023/01/31 08:08:18;;;;;;;16.77;4.50;;;0.80;99.90;;;;;;4428907;28;658176;-74
2023/01/31 08:11:07;;;;;;;8.80;2.53;;;0.80;99.90;;;;;;4418457;28;657587;-74
2023/01/31 08:13:54;;;;;;;18.07;4.53;;;0.80;99.90;;;;;;4435066;28;656444;-74
2023/01/31 08:16:41;;;;;;;21.17;5.07;;;0.90;99.90;;;;;;4416006;28;657752;-74
2023/01/31 08:19:29;;;;;;;15.23;3.50;;;1.00;99.90;;;;;;4434851;28;658654;-74
2023/01/31 08:22:16;;;;;;;18.00;4.50;;;1.00;99.90;;;;;;4410552;28;657781;-74
2023/01/31 08:25:04;;;;;;;21.98;5.00;;;1.00;99.90;;;;;;4444141;28;658389;-74
2023/01/31 08:27:52;;;;;;;22.83;5.03;;;0.90;99.90;;;;;;4413586;28;657838;-75
2023/01/31 08:30:40;;;;;;;18.37;4.33;;;1.00;99.90;;;;;;4439470;28;657122;-74
2023/01/31 08:33:28;;;;;;;17.73;4.57;;;1.10;99.90;;;;;;4408466;28;658016;-74
2023/01/31 08:36:16;;;;;;;19.88;5.38;;;1.00;99.90;;;;;;4415251;28;657397;-74
2023/01/31 08:39:04;;;;;;;17.03;4.57;;;1.00;99.90;;;;;;4435933;28;658044;-73
2023/01/31 08:41:51;;;;;;;28.47;5.00;;;1.00;99.90;;;;;;4409766;28;657923;-74
2023/01/31 08:44:40;;;;;;;17.63;3.88;;;1.00;99.90;;;;;;4438046;28;658736;-75
2023/01/31 08:47:28;;;;;;;21.60;4.83;;;1.10;99.90;;;;;;4412887;28;658252;-75
2023/01/31 08:50:15;;;;;;;24.13;5.03;;;1.10;99.90;;;;;;4429600;28;658394;-74
2023/01/31 08:53:03;;;;;;;13.27;3.33;;;1.30;99.90;;;;;;4442146;28;657941;-73
2023/01/31 08:55:50;;;;;;;20.63;4.73;;;1.40;99.90;;;;;;4415881;28;658138;-75
2023/01/31 08:58:38;;;;;;;15.37;4.10;;;1.20;99.90;;;;;;4437372;28;658772;-75
2023/01/31 09:01:27;;;;;;;16.47;4.30;;;1.00;99.90;;;;;;4412713;28;657811;-74
2023/01/31 09:04:14;;;;;;;12.67;3.33;;;1.00;99.90;;;;;;4438506;28;658205;-74
2023/01/31 09:07:02;;;;;;;24.40;4.83;;;1.10;99.90;;;;;;4410517;28;657881;-75
2023/01/31 09:09:49;;;;;;;15.47;4.57;;;1.30;99.90;;;;;;4436656;28;658707;-75
2023/01/31 09:12:36;;;;;;;22.27;4.57;;;1.30;99.90;;;;;;4414936;28;657999;-72
2023/01/31 09:15:23;;;;;;;16.98;3.95;;;1.30;99.90;;;;;;4431301;28;658627;-74
2023/01/31 09:18:12;;;;;;;18.10;5.17;;;1.10;99.90;;;;;;4409955;28;657569;-75
2023/01/31 09:21:03;;;;;;;15.90;3.57;;;1.30;99.90;;;;;;4436642;28;657603;-74
2023/01/31 09:23:54;;;;;;;19.80;5.47;;;1.10;99.90;;;;;;4413394;28;657593;-75
2023/01/31 09:26:42;;;;;;;26.00;4.67;;;1.30;99.90;;;;;;4409458;28;657620;-75
2023/01/31 09:29:29;;;;;;;21.23;5.27;;;1.30;99.90;;;;;;4439212;28;657800;-75
2023/01/31 09:32:16;;;;;;;15.30;3.90;;;1.20;99.90;;;;;;4406829;28;657307;-75
2023/01/31 09:35:06;;;;;;;22.30;5.07;;;1.20;99.90;;;;;;4435004;28;657679;-75
2023/01/31 09:37:53;;;;;;;15.37;3.77;;;1.20;99.90;;;;;;4411814;28;658170;-75
2023/01/31 09:40:40;;;;;;;19.43;3.57;;;1.30;99.90;;;;;;4418775;28;659310;-75
2023/01/31 09:43:30;;;;;;;16.10;3.73;;;1.40;99.90;;;;;;4428544;28;658123;-75
2023/01/31 09:46:19;;;;;;;16.80;4.17;;;1.20;99.90;;;;;;4419580;28;658492;-75
2023/01/31 09:49:08;;;;;;;16.13;4.20;;;1.20;99.90;;;;;;4412152;28;657774;-74
2023/01/31 09:51:58;;;;;;;18.53;4.47;;;1.30;99.90;;;;;;4409736;28;658219;-75
2023/01/31 09:54:45;;;;;;;13.27;3.87;;;1.30;99.90;;;;;;4409499;28;658639;-75
2023/01/31 09:57:39;;;;;;;21.37;4.97;;;1.30;99.90;;;;;;4436955;28;658285;-75
2023/01/31 10:00:28;;;;;;;30.07;4.83;;;1.40;99.90;;;;;;4384488;28;658428;-75
2023/01/31 10:03:26;;;;;;;19.87;4.17;;;1.50;99.90;;;;;;4413975;28;657672;-75
2023/01/31 10:06:17;;;;;;;20.70;4.40;;;1.70;99.90;;;;;;4409021;28;658111;-75
2023/01/31 10:09:09;;;;;;;21.30;3.90;;;1.70;99.90;;;;;;4412450;28;657597;-75
2023/01/31 10:11:58;;;;;;;16.10;4.17;;;1.60;99.90;;;;;;4388735;28;658288;-75
2023/01/31 10:14:49;;;;;;;12.37;3.73;;;1.90;99.90;;;;;;4411164;28;657680;-74
2023/01/31 10:17:38;;;;;;;14.43;3.40;;;1.90;99.90;;;;;;4407121;28;657640;-74
2023/01/31 10:20:29;;;;;;;26.50;4.30;;;1.60;99.90;;;;;;4414959;28;658094;-75
2023/01/31 10:23:18;;;;;;;12.37;3.10;;;1.50;99.90;;;;;;4418330;28;657297;-75
2023/01/31 10:26:08;;;;;;;14.53;3.87;;;1.70;99.90;;;;;;4420400;28;657980;-74
2023/01/31 10:28:58;;;;;;;18.23;3.77;;;1.70;99.90;;;;;;4418427;28;657727;-75
2023/01/31 10:31:48;;;;;;;19.47;3.90;;;1.60;99.90;;;;;;4412723;28;658117;-75
2023/01/31 10:34:38;;;;;;;17.03;3.60;;;1.80;99.90;;;;;;4414134;28;657805;-75
2023/01/31 10:37:31;;;;;;;18.17;4.30;;;1.80;99.90;;;;;;4417940;28;658039;-74
2023/01/31 10:40:19;;;;;;;14.90;3.27;;;1.90;99.90;;;;;;4416019;28;658652;-75
2023/01/31 10:43:14;;;;;;;13.60;2.80;;;2.00;99.90;;;;;;4415331;28;657806;-75
2023/01/31 10:46:01;;;;;;;14.43;3.20;;;2.10;99.90;;;;;;4410941;28;657401;-74
2023/01/31 10:48:48;;;;;;;12.70;2.90;;;1.90;99.90;;;;;;4431504;28;659291;-75
2023/01/31 10:51:47;;;;;;;14.40;2.90;;;1.90;99.90;;;;;;4410446;28;657285;-74
2023/01/31 10:54:41;;;;;;;14.20;3.10;;;1.80;99.90;;;;;;4412355;28;657486;-75
2023/01/31 10:57:29;;;;;;;11.30;2.80;;;1.80;99.90;;;;;;4409500;28;658662;-74
2023/01/31 11:00:20;;;;;;;10.40;2.20;;;1.70;99.90;;;;;;4413431;28;657614;-74
2023/01/31 11:03:09;;;;;;;8.40;1.80;;;1.80;99.90;;;;;;4412315;28;658304;-73
2023/01/31 11:05:57;;;;;;;13.63;2.73;;;1.40;99.90;;;;;;4416895;28;656648;-74
2023/01/31 11:08:47;;;;;;;12.20;3.30;;;1.40;99.90;;;;;;4438717;28;657494;-75
2023/01/31 11:11:34;;;;;;;14.23;3.43;;;1.60;99.90;;;;;;4411908;28;657848;-74
2023/01/31 11:14:21;;;;;;;15.20;3.30;;;1.60;99.90;;;;;;4412253;28;657943;-73
2023/01/31 11:17:22;;;;;;;13.00;3.63;;;1.50;99.90;;;;;;4430417;28;659083;-74
2023/01/31 11:20:19;;;;;;;19.07;3.53;;;1.60;99.90;;;;;;4411202;28;657535;-74
2023/01/31 11:23:06;;;;;;;9.30;2.50;;;1.70;99.90;;;;;;4417049;28;657437;-75
2023/01/31 11:25:53;;;;;;;9.57;3.13;;;1.60;99.90;;;;;;4419758;28;656487;-73
2023/01/31 11:28:41;;;;;;;13.43;3.47;;;1.30;99.90;;;;;;4408563;28;657249;-74
2023/01/31 11:31:30;;;;;;;14.37;4.80;;;1.20;99.90;;;;;;4430477;28;658781;-73
2023/01/31 11:34:23;;;;;;;17.67;5.00;;;1.20;99.90;;;;;;4414269;28;658343;-73
2023/01/31 11:37:14;;;;;;;14.50;4.10;;;1.20;99.90;;;;;;4390132;28;657389;-74
2023/01/31 11:40:02;;;;;;;11.00;3.37;;;1.10;99.90;;;;;;4411483;28;659309;-73
2023/01/31 11:42:53;;;;;;;20.10;4.60;;;1.10;99.90;;;;;;4423763;28;658243;-75
2023/01/31 11:45:43;;;;;;;13.63;4.25;;;1.30;99.90;;;;;;4407847;28;657780;-74
2023/01/31 11:48:33;;;;;;;22.77;4.60;;;1.30;99.90;;;;;;4413186;28;657391;-73
2023/01/31 11:51:26;;;;;;;20.87;5.00;;;1.30;99.90;;;;;;4424792;28;657578;-73
2023/01/31 11:54:17;;;;;;;15.70;4.73;;;1.30;99.90;;;;;;4410070;28;658203;-74
2023/01/31 11:57:04;;;;;;;21.30;5.17;;;1.40;99.90;;;;;;4410843;28;657913;-75
2023/01/31 11:59:53;;;;;;;23.20;5.40;;;1.30;99.90;;;;;;4414114;28;658171;-74
2023/01/31 12:02:41;;;;;;;21.40;4.78;;;1.50;99.90;;;;;;4417596;28;657749;-74
2023/01/31 12:05:46;;;;;;;14.50;4.10;;;1.50;99.90;;;;;;4441999;28;658101;-76
2023/01/31 12:08:36;;;;;;;21.70;4.30;;;1.60;99.90;;;;;;4407080;28;658230;-75
2023/01/31 12:11:28;;;;;;;17.87;4.27;;;1.70;99.90;;;;;;4412435;28;658365;-75
2023/01/31 12:14:18;;;;;;;16.03;3.07;;;1.90;99.90;;;;;;4415862;28;658298;-74
2023/01/31 12:17:05;;;;;;;18.13;4.15;;;1.70;99.90;;;;;;4420668;28;657635;-75
2023/01/31 12:20:13;;;;;;;18.43;3.40;;;1.60;99.90;;;;;;4439411;28;659085;-75
2023/01/31 12:23:07;;;;;;;7.43;2.90;;;1.90;99.90;;;;;;4411260;28;657698;-74
2023/01/31 12:26:05;;;;;;;15.73;3.90;;;2.00;99.90;;;;;;4409632;28;656662;-74
2023/01/31 12:29:09;;;;;;;20.07;4.30;;;2.20;99.90;;;;;;4423204;28;658186;-75
2023/01/31 12:32:18;;;;;;;12.70;3.67;;;2.40;99.90;;;;;;4419154;28;657844;-75
2023/01/31 12:35:18;;;;;;;18.17;4.47;;;2.50;99.90;;;;;;4391743;28;657670;-75
2023/01/31 12:38:11;;;;;;;11.33;3.07;;;2.20;99.90;;;;;;4390156;28;660363;-75
2023/01/31 12:41:04;;;;;;;16.70;4.30;;;2.00;99.90;;;;;;4411090;28;658437;-75
2023/01/31 12:44:00;;;;;;;14.10;3.37;;;2.10;99.90;;;;;;4396433;28;658033;-75
2023/01/31 12:46:59;;;;;;;12.02;3.33;;;1.90;99.90;;;;;;4395231;28;657850;-76
2023/01/31 12:49:57;;;;;;;20.40;3.83;;;2.00;99.90;;;;;;4418984;28;657633;-76
2023/01/31 12:52:50;;;;;;;11.45;2.97;;;2.00;99.90;;;;;;4410167;28;658343;-75
2023/01/31 12:55:39;;;;;;;15.10;3.17;;;1.80;99.90;;;;;;4406617;28;658349;-75
2023/01/31 12:58:39;;;;;;;14.17;3.47;;;1.90;99.90;;;;;;4423916;28;658114;-75
2023/01/31 13:01:31;;;;;;;9.77;2.33;;;2.00;99.90;;;;;;4415804;28;657865;-75
2023/01/31 13:04:27;;;;;;;14.32;4.15;;;2.00;99.90;;;;;;4413722;28;657254;-75
2023/01/31 13:07:18;;;;;;;18.87;4.10;;;2.00;99.90;;;;;;4415022;28;658350;-75
2023/01/31 13:10:07;;;;;;;13.90;3.40;;;1.90;99.90;;;;;;4436014;28;657635;-75
2023/01/31 13:12:54;;;;;;;14.77;4.40;;;1.80;99.90;;;;;;4443948;28;657182;-75
2023/01/31 13:15:46;;;;;;;12.27;3.87;;;1.80;99.90;;;;;;4411083;28;657329;-75
2023/01/31 13:18:34;;;;;;;14.87;4.37;;;1.90;99.90;;;;;;4414508;28;658852;-75
2023/01/31 13:21:23;;;;;;;16.97;4.63;;;1.80;99.90;;;;;;4417575;28;657543;-75
2023/01/31 13:24:12;;;;;;;19.00;4.30;;;1.70;99.90;;;;;;4430711;28;657324;-75
2023/01/31 13:27:01;;;;;;;15.87;4.10;;;1.80;99.90;;;;;;4439687;28;657536;-74
2023/01/31 13:29:51;;;;;;;19.00;4.27;;;1.70;99.90;;;;;;4413734;28;658559;-74
2023/01/31 13:32:42;;;;;;;16.40;4.77;;;1.70;99.90;;;;;;4409341;28;658213;-75
2023/01/31 13:35:32;;;;;;;19.38;4.45;;;1.70;99.90;;;;;;4412977;28;657428;-75
2023/01/31 13:38:19;;;;;;;14.18;3.40;;;1.90;99.90;;;;;;4409011;28;657674;-76
2023/01/31 13:41:06;;;;;;;15.53;4.70;;;2.20;99.90;;;;;;4417027;28;657696;-75
2023/01/31 13:43:54;;;;;;;26.17;6.43;;;2.40;99.90;;;;;;4429559;28;658707;-75
2023/01/31 13:46:44;;;;;;;17.73;5.30;;;2.70;99.90;;;;;;4408293;28;657367;-75
2023/01/31 13:49:34;;;;;;;21.57;4.83;;;2.80;99.90;;;;;;4417249;28;658967;-75
2023/01/31 13:52:24;;;;;;;22.10;6.27;;;2.40;99.90;;;;;;4419576;28;657458;-75
2023/01/31 13:55:14;;;;;;;20.50;6.27;;;2.00;99.90;;;;;;4401558;28;657708;-75
2023/01/31 13:58:04;;;;;;;20.43;6.63;;;2.00;99.90;;;;;;4414176;28;658502;-75
2023/01/31 14:00:58;;;;;;;21.13;6.10;;;1.90;99.90;;;;;;4414068;28;657499;-75
2023/01/31 14:04:40;;;;;;;20.43;6.07;;;2.00;99.90;;;;;;4396548;28;657881;-75
2023/01/31 14:07:28;;;;;;;17.17;5.87;;;1.80;99.90;;;;;;4371948;28;657934;-75
2023/01/31 14:10:28;;;;;;;25.23;6.17;;;1.70;99.90;;;;;;4411619;28;657988;-75
2023/01/31 14:13:26;;;;;;;19.80;5.50;;;1.70;99.90;;;;;;4391320;28;657802;-75
2023/01/31 14:16:34;;;;;;;19.30;5.50;;;1.60;99.90;;;;;;4413664;28;659012;-75
2023/01/31 14:20:01;;;;;;;24.93;6.10;;;1.60;99.90;;;;;;4422632;28;657725;-75
2023/01/31 14:23:06;;;;;;;20.93;5.40;;;1.70;99.90;;;;;;4390945;28;659087;-75
2023/01/31 14:25:54;;;;;;;21.67;6.37;;;1.80;99.90;;;;;;4413837;28;658174;-75
2023/01/31 14:28:43;;;;;;;21.20;5.97;;;1.60;99.90;;;;;;4416248;28;657702;-75
2023/01/31 14:31:30;;;;;;;18.10;5.55;;;1.60;99.90;;;;;;4413040;28;657865;-75
2023/01/31 14:34:18;;;;;;;20.43;5.97;;;1.50;99.90;;;;;;4434503;28;658704;-75
2023/01/31 14:37:10;;;;;;;16.88;5.22;;;1.50;99.90;;;;;;4428952;28;658401;-75
2023/01/31 14:40:23;;;;;;;17.57;5.03;;;1.30;99.90;;;;;;4416028;28;658663;-75
2023/01/31 14:43:20;;;;;;;18.70;4.87;;;1.20;99.90;;;;;;4414833;28;658600;-75
2023/01/31 14:46:13;;;;;;;17.30;4.60;;;1.20;99.90;;;;;;4408255;28;659271;-75